Time;durP1;ratioP1;P1;durP2;ratioP2;P2;SDS_P1;SDS_P2;PMS_P1;PMS_P2;Temp;Humidity;BMP_temperature;BMP_pressure;BME280_temperature;BME280_humidity;BME280_pressure;Samples;Min_cycle;Max_cycle;Signal;HPM_P1;HPM_P2
2021/12/21 00:02:01;;;;;;;6.40;3.00;;;-1.10;99.90;;;;;;5061762;28;20401;-83
2021/12/21 00:04:27;;;;;;;5.93;2.97;;;-1.10;99.90;;;;;;5044940;28;20021;-82
2021/12/21 00:06:52;;;;;;;5.43;2.95;;;-1.20;99.90;;;;;;5047709;28;20079;-82
2021/12/21 00:09:18;;;;;;;9.93;3.00;;;-1.20;99.90;;;;;;5040431;28;20029;-82
2021/12/21 00:11:44;;;;;;;8.07;3.15;;;-1.20;99.90;;;;;;5042137;28;20029;-81
2021/12/21 00:14:20;;;;;;;6.55;3.42;;;-1.20;99.90;;;;;;5042350;28;20037;-82
2021/12/21 00:22:17;;;;;;;6.15;3.20;;;-1.30;99.90;;;;;;5041564;28;20029;-83
2021/12/21 00:24:47;;;;;;;8.68;3.35;;;-1.30;99.90;;;;;;5040770;28;20097;-83
2021/12/21 00:27:14;;;;;;;9.38;4.18;;;-1.40;99.90;;;;;;5041651;28;20397;-83
2021/12/21 00:29:40;;;;;;;9.48;3.58;;;-1.40;99.90;;;;;;5041468;28;20028;-83
2021/12/21 00:32:07;;;;;;;9.18;4.00;;;-1.40;99.90;;;;;;5041161;28;20029;-82
2021/12/21 00:34:32;;;;;;;11.35;3.72;;;-1.50;99.90;;;;;;5025244;28;20014;-83
2021/12/21 00:36:58;;;;;;;7.15;3.30;;;-1.50;99.90;;;;;;5055313;28;20036;-82
2021/12/21 00:39:24;;;;;;;7.95;3.88;;;-1.50;99.90;;;;;;5059993;28;20064;-82
2021/12/21 00:42:21;;;;;;;9.05;4.05;;;-1.50;99.90;;;;;;5060236;28;20078;-82
2021/12/21 00:44:47;;;;;;;9.18;3.30;;;-1.50;99.90;;;;;;5044131;28;20086;-82
2021/12/21 00:47:15;;;;;;;6.63;3.15;;;-1.60;99.90;;;;;;5042449;28;20476;-82
2021/12/21 00:49:45;;;;;;;5.05;2.65;;;-1.60;99.90;;;;;;5046529;28;20025;-82
2021/12/21 00:52:14;;;;;;;8.38;3.10;;;-1.60;99.90;;;;;;5047842;28;20029;-82
2021/12/21 00:54:41;;;;;;;6.53;3.40;;;-1.60;99.90;;;;;;5040104;28;20025;-82
2021/12/21 00:57:08;;;;;;;8.23;3.78;;;-1.70;99.90;;;;;;5040045;28;20025;-82
2021/12/21 00:59:34;;;;;;;6.00;2.92;;;-1.70;99.90;;;;;;5022505;28;20024;-83
2021/12/21 01:02:00;;;;;;;8.77;3.20;;;-1.70;99.90;;;;;;5040814;28;20022;-83
2021/12/21 01:04:33;;;;;;;6.38;3.10;;;-1.70;99.90;;;;;;5033558;28;20025;-82
2021/12/21 01:07:09;;;;;;;11.35;3.42;;;-1.70;99.90;;;;;;5025001;28;20047;-82
2021/12/21 01:12:05;;;;;;;5.57;3.00;;;-1.70;99.90;;;;;;5042988;28;20033;-83
2021/12/21 01:17:22;;;;;;;7.70;3.42;;;-1.70;99.90;;;;;;5051075;28;20035;-79
2021/12/21 01:20:02;;;;;;;6.10;3.13;;;-1.70;99.90;;;;;;5051437;28;20032;-79
2021/12/21 01:30:31;;;;;;;6.95;3.15;;;-1.90;99.90;;;;;;5051305;28;20025;-80
2021/12/21 01:38:03;;;;;;;3.83;2.58;;;-1.80;99.90;;;;;;5045838;28;20228;-81
2021/12/21 01:43:13;;;;;;;7.32;2.53;;;-1.80;99.90;;;;;;5043524;28;20039;-80
2021/12/21 01:51:10;;;;;;;8.15;2.92;;;-1.80;99.90;;;;;;5043491;28;20211;-81
2021/12/21 01:53:36;;;;;;;7.80;2.53;;;-1.80;99.90;;;;;;5046395;28;20109;-80
2021/12/21 01:56:04;;;;;;;8.55;3.15;;;-1.90;99.90;;;;;;5047002;28;20036;-80
2021/12/21 01:58:30;;;;;;;10.18;3.65;;;-1.90;99.90;;;;;;5051733;28;20152;-80
2021/12/21 02:00:56;;;;;;;7.38;4.05;;;-1.90;99.90;;;;;;5042228;28;20029;-81
2021/12/21 02:03:21;;;;;;;8.60;3.53;;;-2.00;99.90;;;;;;5041181;28;20049;-81
2021/12/21 02:05:47;;;;;;;9.65;3.33;;;-2.00;99.90;;;;;;5041235;28;20029;-80
2021/12/21 02:08:14;;;;;;;6.20;2.60;;;-2.00;99.90;;;;;;5040710;28;20431;-80
2021/12/21 02:10:40;;;;;;;5.80;2.85;;;-2.00;99.90;;;;;;5040022;28;20394;-80
2021/12/21 02:13:06;;;;;;;4.72;2.90;;;-2.10;99.90;;;;;;5038689;28;20033;-80
2021/12/21 02:15:32;;;;;;;4.55;2.90;;;-2.10;99.90;;;;;;5051751;28;20079;-81
2021/12/21 02:20:44;;;;;;;4.05;2.92;;;-2.10;99.90;;;;;;5060290;28;20021;-81
2021/12/21 02:23:22;;;;;;;5.32;2.40;;;-2.20;99.90;;;;;;5042617;28;20032;-80
2021/12/21 02:31:07;;;;;;;5.47;2.80;;;-2.20;99.90;;;;;;5040990;28;20037;-81
2021/12/21 02:33:34;;;;;;;6.07;2.83;;;-2.20;99.90;;;;;;5041199;28;20040;-81
2021/12/21 02:36:00;;;;;;;8.77;3.33;;;-2.20;99.90;;;;;;5040276;28;20083;-79
2021/12/21 02:38:27;;;;;;;5.50;3.42;;;-2.20;99.90;;;;;;5040321;28;20041;-80
2021/12/21 02:40:54;;;;;;;7.28;3.60;;;-2.10;99.90;;;;;;5041215;28;20109;-82
2021/12/21 02:43:20;;;;;;;9.38;3.13;;;-2.20;99.90;;;;;;5041236;28;20025;-80
2021/12/21 02:45:46;;;;;;;6.55;3.08;;;-2.20;99.90;;;;;;5047070;28;20039;-80
2021/12/21 02:48:12;;;;;;;4.72;3.38;;;-2.20;99.90;;;;;;5064886;28;20136;-80
2021/12/21 02:50:38;;;;;;;10.25;3.10;;;-2.10;99.90;;;;;;5061606;28;20033;-80
2021/12/21 02:53:05;;;;;;;6.10;2.83;;;-2.20;99.90;;;;;;5043161;28;20024;-81
2021/12/21 02:55:31;;;;;;;7.90;3.15;;;-2.20;99.90;;;;;;5045987;28;20165;-80
2021/12/21 02:57:57;;;;;;;5.90;3.50;;;-2.20;99.90;;;;;;5041008;28;20437;-81
2021/12/21 03:00:28;;;;;;;6.07;3.53;;;-2.20;99.90;;;;;;5052373;28;20116;-80
2021/12/21 03:02:54;;;;;;;9.63;3.97;;;-2.20;99.90;;;;;;5047846;28;20028;-80
2021/12/21 03:05:21;;;;;;;6.18;3.38;;;-2.30;99.90;;;;;;5046258;28;20022;-81
2021/12/21 03:10:31;;;;;;;9.90;4.07;;;-2.30;99.90;;;;;;5046626;28;20036;-80
2021/12/21 03:15:27;;;;;;;9.05;3.92;;;-2.40;99.90;;;;;;5063368;28;20033;-81
2021/12/21 03:17:53;;;;;;;8.43;3.70;;;-2.40;99.90;;;;;;5041463;28;20081;-79
2021/12/21 03:20:20;;;;;;;8.20;3.58;;;-2.40;99.90;;;;;;5040496;28;20040;-80
2021/12/21 03:22:46;;;;;;;10.32;3.85;;;-2.40;99.90;;;;;;5044296;28;20048;-80
2021/12/21 03:25:12;;;;;;;6.82;3.55;;;-2.50;99.90;;;;;;5045174;28;20025;-82
2021/12/21 03:27:38;;;;;;;8.32;3.47;;;-2.50;99.90;;;;;;5045375;28;20083;-81
2021/12/21 03:30:08;;;;;;;6.88;3.50;;;-2.50;99.90;;;;;;5044481;28;20073;-81
2021/12/21 03:32:34;;;;;;;13.07;4.43;;;-2.50;99.90;;;;;;5044226;28;20036;-80
2021/12/21 03:35:00;;;;;;;7.97;3.63;;;-2.60;99.90;;;;;;5044477;28;20378;-80
2021/12/21 03:37:26;;;;;;;7.93;3.80;;;-2.60;99.90;;;;;;5043704;28;20028;-81
2021/12/21 03:39:54;;;;;;;7.53;3.40;;;-2.60;99.90;;;;;;5042729;28;20029;-81
2021/12/21 03:42:24;;;;;;;6.43;3.10;;;-2.60;99.90;;;;;;5025732;28;20018;-80
2021/12/21 03:44:50;;;;;;;8.98;3.88;;;-2.60;99.90;;;;;;5052169;28;20029;-80
2021/12/21 03:47:17;;;;;;;11.68;4.35;;;-2.60;99.90;;;;;;5042843;28;20037;-80
2021/12/21 03:52:15;;;;;;;8.05;3.85;;;-2.60;99.90;;;;;;5063829;28;20029;-81
2021/12/21 03:54:44;;;;;;;7.00;4.38;;;-2.60;99.90;;;;;;5071096;28;20048;-80
2021/12/21 03:57:10;;;;;;;10.10;4.43;;;-2.70;99.90;;;;;;5073221;28;20033;-80
2021/12/21 03:59:36;;;;;;;6.72;3.97;;;-2.70;99.90;;;;;;5054194;28;20072;-81
2021/12/21 04:02:02;;;;;;;6.65;3.88;;;-2.70;99.90;;;;;;5044912;28;20021;-81
2021/12/21 04:04:28;;;;;;;10.60;3.97;;;-2.60;99.90;;;;;;5025673;28;20030;-81
2021/12/21 04:06:54;;;;;;;10.10;4.68;;;-2.60;99.90;;;;;;5043717;28;20030;-80
2021/12/21 04:09:20;;;;;;;12.25;4.18;;;-2.60;99.90;;;;;;5025016;28;20030;-81
2021/12/21 04:11:46;;;;;;;7.75;4.07;;;-2.60;99.90;;;;;;5043109;28;20030;-81
2021/12/21 04:14:12;;;;;;;7.72;4.85;;;-2.60;99.90;;;;;;5050820;28;20036;-81
2021/12/21 04:16:38;;;;;;;6.97;3.70;;;-2.50;99.90;;;;;;5055096;28;20025;-82
2021/12/21 04:19:04;;;;;;;9.25;5.03;;;-2.60;99.90;;;;;;5063325;28;20584;-81
2021/12/21 04:21:30;;;;;;;14.00;4.57;;;-2.50;99.90;;;;;;5056035;28;20016;-82
2021/12/21 04:23:56;;;;;;;12.30;4.43;;;-2.50;99.90;;;;;;5045082;28;20013;-82
2021/12/21 04:26:21;;;;;;;8.57;4.30;;;-2.50;99.90;;;;;;5053881;28;20063;-82
2021/12/21 04:28:48;;;;;;;9.43;4.10;;;-2.50;99.90;;;;;;5064448;28;20025;-80
2021/12/21 04:31:14;;;;;;;10.32;4.40;;;-2.50;99.90;;;;;;5044911;28;20048;-82
2021/12/21 04:33:42;;;;;;;8.75;4.05;;;-2.40;99.90;;;;;;5041901;28;20018;-82
2021/12/21 04:36:09;;;;;;;6.80;4.32;;;-2.40;99.90;;;;;;5024976;28;20029;-82
2021/12/21 04:38:39;;;;;;;7.40;3.65;;;-2.40;99.90;;;;;;5024527;28;20072;-82
2021/12/21 04:43:34;;;;;;;11.13;4.43;;;-2.40;99.90;;;;;;5045444;28;20417;-81
2021/12/21 04:46:00;;;;;;;6.95;3.63;;;-2.40;99.90;;;;;;5037583;28;20109;-78
2021/12/21 04:48:26;;;;;;;9.57;3.83;;;-2.40;99.90;;;;;;5044678;28;20040;-77
2021/12/21 04:50:52;;;;;;;7.53;3.92;;;-2.50;99.90;;;;;;5039449;28;20025;-77
2021/12/21 04:53:18;;;;;;;6.80;3.50;;;-2.40;99.90;;;;;;5038620;28;20037;-76
2021/12/21 04:55:44;;;;;;;6.18;3.78;;;-2.40;99.90;;;;;;5039094;28;20030;-78
2021/12/21 04:58:11;;;;;;;5.40;3.63;;;-2.40;99.90;;;;;;5039260;28;20040;-78
2021/12/21 05:00:38;;;;;;;9.75;4.05;;;-2.50;99.90;;;;;;5042060;28;20054;-83
2021/12/21 05:03:04;;;;;;;6.78;3.78;;;-2.50;99.90;;;;;;5054649;28;20048;-80
2021/12/21 05:05:30;;;;;;;10.15;3.95;;;;;;;;;;5048586;28;20045;-77
2021/12/21 05:08:08;;;;;;;10.73;3.97;;;-2.60;99.90;;;;;;5040586;28;20041;-78
2021/12/21 05:10:42;;;;;;;8.15;4.15;;;-2.70;99.90;;;;;;5023829;28;20040;-77
2021/12/21 05:13:08;;;;;;;8.77;4.00;;;-2.80;99.90;;;;;;5040077;28;20056;-78
2021/12/21 05:15:34;;;;;;;6.88;3.80;;;-2.80;99.90;;;;;;5052103;28;20033;-76
2021/12/21 05:17:59;;;;;;;8.02;3.47;;;-2.90;99.90;;;;;;5060347;28;20106;-77
2021/12/21 05:20:25;;;;;;;7.55;4.10;;;-2.90;99.90;;;;;;5044737;28;20041;-78
2021/12/21 05:22:51;;;;;;;5.82;3.47;;;-2.90;99.90;;;;;;5040352;28;20100;-78
2021/12/21 05:25:18;;;;;;;11.15;4.40;;;-2.90;99.90;;;;;;5039941;28;20022;-78
2021/12/21 05:27:44;;;;;;;5.85;4.05;;;-2.80;99.90;;;;;;5040383;28;20021;-78
2021/12/21 05:30:10;;;;;;;6.90;4.35;;;-2.80;99.90;;;;;;5039782;28;20052;-78
2021/12/21 05:32:36;;;;;;;7.85;4.53;;;-2.80;99.90;;;;;;5039451;28;20033;-78
2021/12/21 05:35:02;;;;;;;8.05;3.67;;;-2.80;99.90;;;;;;5040891;28;20044;-78
2021/12/21 05:37:28;;;;;;;8.63;4.13;;;-2.80;99.90;;;;;;5041008;28;20022;-77
2021/12/21 05:39:58;;;;;;;5.63;3.92;;;-2.80;99.90;;;;;;5048195;28;20044;-82
2021/12/21 05:42:24;;;;;;;9.57;4.57;;;-2.70;99.90;;;;;;5037978;28;20010;-81
2021/12/21 05:44:50;;;;;;;5.80;3.97;;;-2.70;99.90;;;;;;5050516;28;20025;-81
2021/12/21 05:47:18;;;;;;;10.77;4.88;;;-2.70;99.90;;;;;;5053074;28;20040;-84
2021/12/21 05:49:44;;;;;;;10.35;4.43;;;-2.70;99.90;;;;;;5047426;28;20374;-85
2021/12/21 05:52:10;;;;;;;9.23;4.60;;;-2.60;99.90;;;;;;5054417;28;20064;-81
2021/12/21 05:54:36;;;;;;;8.95;4.90;;;-2.60;99.90;;;;;;5054897;28;20037;-83
2021/12/21 05:57:03;;;;;;;11.57;5.63;;;-2.60;99.90;;;;;;5035853;28;20056;-84
2021/12/21 05:59:28;;;;;;;11.25;5.70;;;-2.60;99.90;;;;;;5033568;28;20036;-84
2021/12/21 06:01:54;;;;;;;7.47;5.00;;;-2.50;99.90;;;;;;5044958;28;20100;-84
2021/12/21 06:04:21;;;;;;;9.13;5.43;;;-2.50;99.90;;;;;;5043121;28;20497;-86
2021/12/21 06:06:47;;;;;;;15.00;6.22;;;-2.50;99.90;;;;;;5041230;28;20036;-85
2021/12/21 06:09:14;;;;;;;10.75;5.50;;;-2.40;99.90;;;;;;5050583;28;20022;-80
2021/12/21 06:11:47;;;;;;;9.82;5.13;;;-2.40;99.90;;;;;;5026483;28;20032;-84
2021/12/21 06:14:34;;;;;;;8.93;5.15;;;-2.40;99.90;;;;;;5060606;28;20035;-80
2021/12/21 06:25:34;;;;;;;10.93;5.47;;;-2.50;99.90;;;;;;5032627;28;20032;-84
2021/12/21 06:28:01;;;;;;;12.38;5.53;;;-2.40;99.90;;;;;;5038288;28;20073;-86
2021/12/21 06:30:28;;;;;;;8.07;4.97;;;-2.30;99.90;;;;;;5016809;28;20085;-85
2021/12/21 06:32:54;;;;;;;11.30;6.32;;;-2.30;99.90;;;;;;5032869;28;20018;-84
2021/12/21 06:35:20;;;;;;;11.20;5.70;;;-2.20;99.90;;;;;;5028098;28;20021;-86
2021/12/21 06:37:46;;;;;;;8.90;5.00;;;-2.20;99.90;;;;;;5008560;28;20026;-84
2021/12/21 06:40:12;;;;;;;11.20;5.78;;;-2.20;99.90;;;;;;5036224;28;20022;-84
2021/12/21 06:42:40;;;;;;;8.30;4.75;;;-2.20;99.90;;;;;;5031904;28;20450;-86
2021/12/21 06:45:13;;;;;;;8.70;5.28;;;-2.10;99.90;;;;;;5022319;28;20132;-86
2021/12/21 06:53:08;;;;;;;12.07;6.43;;;-2.20;99.90;;;;;;5047381;28;20036;-81
2021/12/21 06:55:33;;;;;;;11.90;6.25;;;-2.30;99.90;;;;;;5028733;28;20029;-81
2021/12/21 06:57:59;;;;;;;15.50;7.47;;;-2.40;99.90;;;;;;5059465;28;20068;-82
2021/12/21 07:00:25;;;;;;;11.27;6.68;;;-2.40;99.90;;;;;;5059303;28;20018;-80
2021/12/21 07:02:51;;;;;;;15.32;7.43;;;-2.40;99.90;;;;;;5052421;28;20083;-83
2021/12/21 07:05:17;;;;;;;13.65;7.47;;;-2.40;99.90;;;;;;5049371;28;20013;-80
2021/12/21 07:07:42;;;;;;;16.58;7.20;;;-2.40;99.90;;;;;;5059478;28;20030;-83
2021/12/21 07:10:13;;;;;;;14.68;7.22;;;-2.40;99.90;;;;;;5048148;28;20089;-79
2021/12/21 07:20:24;;;;;;;14.40;6.97;;;-2.40;99.90;;;;;;5049311;28;20060;-80
2021/12/21 07:22:50;;;;;;;16.02;6.38;;;-2.40;99.90;;;;;;5033568;28;20418;-84
2021/12/21 07:25:16;;;;;;;11.52;7.25;;;-2.30;99.90;;;;;;5054062;28;20036;-83
2021/12/21 07:27:42;;;;;;;10.50;6.80;;;-2.30;99.90;;;;;;5053483;28;20036;-84
2021/12/21 07:30:08;;;;;;;15.40;7.00;;;-2.30;99.90;;;;;;5054860;28;20036;-83
2021/12/21 07:32:34;;;;;;;12.70;6.45;;;-2.20;99.90;;;;;;5054811;28;20026;-84
2021/12/21 07:35:00;;;;;;;14.13;6.57;;;-2.10;99.90;;;;;;5055276;28;20036;-83
2021/12/21 07:37:26;;;;;;;16.27;8.20;;;-2.00;99.90;;;;;;5055718;28;20021;-82
2021/12/21 07:39:53;;;;;;;16.08;8.15;;;-1.90;99.90;;;;;;5055072;28;20025;-83
2021/12/21 07:42:20;;;;;;;14.10;7.78;;;-1.90;99.90;;;;;;5055213;28;20026;-84
2021/12/21 07:44:47;;;;;;;14.63;8.45;;;-1.80;99.90;;;;;;5060394;28;20022;-84
2021/12/21 07:47:13;;;;;;;23.73;8.82;;;-1.70;99.90;;;;;;5051904;28;20029;-84
2021/12/21 07:49:39;;;;;;;20.10;9.05;;;-1.60;99.90;;;;;;5050906;28;20037;-83
2021/12/21 07:52:09;;;;;;;15.73;8.05;;;-1.60;99.90;;;;;;5051483;28;20085;-83
2021/12/21 07:54:38;;;;;;;22.02;9.35;;;-1.60;99.90;;;;;;5032751;28;20036;-85
2021/12/21 07:57:08;;;;;;;24.05;10.55;;;-1.50;99.90;;;;;;5048699;28;20073;-83
2021/12/21 07:59:35;;;;;;;23.70;10.20;;;-1.40;99.90;;;;;;5030538;28;20036;-83
2021/12/21 08:02:02;;;;;;;20.45;9.68;;;-1.20;99.90;;;;;;5047474;28;20298;-84
2021/12/21 08:04:28;;;;;;;17.13;8.93;;;-1.20;99.90;;;;;;5046912;28;20045;-84
2021/12/21 08:06:58;;;;;;;19.65;9.13;;;-1.10;99.90;;;;;;5047258;28;20429;-82
2021/12/21 08:09:32;;;;;;;18.40;10.30;;;-1.00;99.90;;;;;;5046424;28;20029;-83
2021/12/21 08:12:16;;;;;;;20.08;9.68;;;-1.00;99.90;;;;;;5026414;28;20029;-84
2021/12/21 08:14:47;;;;;;;21.27;10.35;;;-1.00;99.90;;;;;;5027749;28;20033;-81
2021/12/21 08:17:13;;;;;;;18.27;9.48;;;-1.20;99.90;;;;;;5041846;28;20120;-80
2021/12/21 08:19:39;;;;;;;25.52;10.90;;;-1.30;99.90;;;;;;5014757;28;20084;-84
2021/12/21 08:22:05;;;;;;;18.80;11.00;;;-1.40;99.90;;;;;;5040671;28;20022;-84
2021/12/21 08:24:33;;;;;;;21.05;11.43;;;-1.40;99.90;;;;;;5038552;28;20100;-85
2021/12/21 08:27:00;;;;;;;25.40;12.40;;;-1.50;99.90;;;;;;5028059;28;20033;-84
2021/12/21 08:29:29;;;;;;;25.67;11.82;;;-1.50;99.90;;;;;;5044128;28;20449;-85
2021/12/21 08:31:55;;;;;;;18.55;10.38;;;-1.40;99.90;;;;;;5031874;28;20033;-84
2021/12/21 08:34:22;;;;;;;25.90;11.85;;;-1.40;99.90;;;;;;5036860;28;20017;-84
2021/12/21 08:36:48;;;;;;;17.65;10.13;;;-1.40;99.90;;;;;;5007420;28;20037;-86
2021/12/21 08:39:16;;;;;;;20.30;11.05;;;-1.40;99.90;;;;;;5023955;28;20026;-85
2021/12/21 08:41:43;;;;;;;20.67;11.32;;;-1.40;99.90;;;;;;5024272;28;20022;-82
2021/12/21 08:44:11;;;;;;;21.95;11.07;;;-1.30;99.90;;;;;;5042124;28;20050;-84
2021/12/21 08:46:39;;;;;;;21.30;10.50;;;-1.30;99.90;;;;;;5034271;28;20036;-84
2021/12/21 08:49:05;;;;;;;19.63;9.95;;;-1.30;99.90;;;;;;5043787;28;20029;-84
2021/12/21 08:51:32;;;;;;;20.05;10.63;;;-1.30;99.90;;;;;;5043526;28;20501;-85
2021/12/21 08:53:57;;;;;;;20.55;10.20;;;-1.20;99.90;;;;;;5043743;28;20025;-84
2021/12/21 08:56:24;;;;;;;19.30;10.73;;;-1.10;99.90;;;;;;5044728;28;20086;-84
2021/12/21 08:58:50;;;;;;;17.20;9.30;;;-0.90;99.90;;;;;;5043361;28;20040;-85
2021/12/21 09:01:17;;;;;;;15.88;8.70;;;-0.70;99.90;;;;;;5044505;28;20359;-85
2021/12/21 09:03:43;;;;;;;20.88;9.93;;;-0.50;99.90;;;;;;5044521;28;20390;-83
2021/12/21 09:06:09;;;;;;;18.20;9.02;;;-0.30;99.90;;;;;;5025014;28;20033;-82
2021/12/21 09:08:35;;;;;;;18.25;9.05;;;-0.10;99.90;;;;;;5043275;28;20032;-83
2021/12/21 09:11:04;;;;;;;16.55;9.88;;;0.00;99.90;;;;;;5041819;28;20029;-81
2021/12/21 09:13:32;;;;;;;19.83;11.05;;;0.00;99.90;;;;;;5035830;28;20080;-85
2021/12/21 09:15:58;;;;;;;17.73;9.73;;;-0.20;99.90;;;;;;5052435;28;20029;-83
2021/12/21 09:18:24;;;;;;;19.45;10.23;;;-0.20;99.90;;;;;;5042430;28;20081;-86
2021/12/21 09:20:50;;;;;;;17.60;9.90;;;-0.20;99.90;;;;;;5043496;28;20470;-84
2021/12/21 09:23:17;;;;;;;17.40;10.88;;;0.00;99.90;;;;;;5026560;28;20028;-85
2021/12/21 09:25:43;;;;;;;16.50;9.07;;;0.10;99.90;;;;;;5023245;28;20029;-85
2021/12/21 09:28:09;;;;;;;20.65;10.65;;;0.20;99.90;;;;;;5042896;28;20498;-85
2021/12/21 09:30:35;;;;;;;20.13;9.40;;;0.30;99.90;;;;;;5035301;28;20022;-84
2021/12/21 09:33:01;;;;;;;18.90;9.52;;;0.60;99.90;;;;;;5035348;28;20029;-85
2021/12/21 09:35:27;;;;;;;15.75;9.40;;;0.80;99.90;;;;;;5045129;28;20055;-84
2021/12/21 09:37:54;;;;;;;21.38;9.52;;;0.80;99.50;;;;;;5025070;28;20076;-85
2021/12/21 09:40:27;;;;;;;15.82;9.30;;;0.60;98.50;;;;;;5042836;28;20048;-84
2021/12/21 09:42:53;;;;;;;14.45;8.90;;;0.10;98.70;;;;;;5024552;28;20116;-85
2021/12/21 09:45:20;;;;;;;21.17;9.60;;;-0.10;99.10;;;;;;5059698;28;20025;-85
2021/12/21 09:47:46;;;;;;;16.23;8.45;;;-0.20;98.80;;;;;;5042165;28;20105;-84
2021/12/21 09:50:14;;;;;;;14.60;8.43;;;-0.30;99.60;;;;;;5047843;28;20013;-83
2021/12/21 09:52:40;;;;;;;19.00;8.52;;;-0.40;99.90;;;;;;5051722;28;20022;-83
2021/12/21 09:55:09;;;;;;;16.45;8.57;;;-0.50;99.90;;;;;;5044687;28;20021;-82
2021/12/21 09:57:35;;;;;;;12.20;7.68;;;-0.70;99.90;;;;;;5029479;28;20064;-85
2021/12/21 10:00:08;;;;;;;12.70;7.88;;;-0.70;99.90;;;;;;5023727;28;20546;-84
2021/12/21 10:02:35;;;;;;;;;;;-0.60;99.90;;;;;;5031139;28;20029;-84
2021/12/21 10:05:06;;;;;;;15.38;8.20;;;-0.40;99.90;;;;;;5038744;28;19994;-84
2021/12/21 10:07:33;;;;;;;13.13;8.13;;;-0.30;99.90;;;;;;5063101;22;20043;-78
2021/12/21 10:10:18;;;;;;;14.55;8.30;;;-0.20;99.90;;;;;;5067494;28;20103;-79
2021/12/21 10:12:47;;;;;;;11.55;6.43;;;0.20;99.90;;;;;;5064971;28;20013;-77
2021/12/21 10:15:20;;;;;;;13.18;8.30;;;0.40;99.70;;;;;;5074082;28;20024;-78
2021/12/21 10:18:08;;;;;;;14.00;8.05;;;0.40;98.10;;;;;;5029368;28;20037;-77
2021/12/21 10:20:41;;;;;;;17.88;10.70;;;0.40;98.50;;;;;;5046098;28;20050;-79
2021/12/21 10:23:20;;;;;;;19.58;8.93;;;0.40;98.30;;;;;;5042091;28;20018;-79
2021/12/21 10:25:55;;;;;;;16.08;8.32;;;0.20;97.90;;;;;;5052519;28;20242;-77
2021/12/21 10:28:39;;;;;;;20.35;8.65;;;0.10;98.50;;;;;;5057390;28;20079;-79
2021/12/21 10:31:11;;;;;;;15.98;8.55;;;0.10;98.20;;;;;;5060153;28;20059;-80
2021/12/21 10:33:39;;;;;;;20.65;10.15;;;0.20;98.30;;;;;;5033048;28;20119;-78
2021/12/21 10:36:08;;;;;;;14.85;8.48;;;0.10;98.30;;;;;;5052644;28;20622;-79
2021/12/21 10:38:58;;;;;;;15.13;8.55;;;0.10;98.60;;;;;;5058387;28;20028;-80
2021/12/21 10:41:41;;;;;;;15.82;8.68;;;0.20;98.90;;;;;;5025861;28;20076;-80
2021/12/21 10:44:10;;;;;;;17.13;8.90;;;0.30;98.40;;;;;;5061214;28;20032;-79
2021/12/21 10:46:38;;;;;;;15.18;8.95;;;0.40;98.50;;;;;;5043648;28;20045;-79
2021/12/21 10:49:13;;;;;;;17.83;9.13;;;0.50;98.00;;;;;;5043748;28;20022;-79
2021/12/21 10:52:00;;;;;;;12.60;8.05;;;0.40;98.20;;;;;;5028860;28;20036;-78
2021/12/21 10:54:41;;;;;;;14.40;7.65;;;0.50;98.50;;;;;;5044358;28;20006;-78
2021/12/21 10:57:10;;;;;;;16.52;8.90;;;0.50;98.10;;;;;;5056554;28;20420;-77
2021/12/21 10:59:41;;;;;;;13.63;8.45;;;0.50;97.70;;;;;;5059515;28;20021;-78
2021/12/21 11:02:18;;;;;;;18.02;9.32;;;0.40;97.90;;;;;;5058590;28;20025;-79
2021/12/21 11:04:48;;;;;;;18.58;9.20;;;0.40;97.80;;;;;;5059354;28;20021;-79
2021/12/21 11:10:32;;;;;;;16.40;8.80;;;0.20;98.20;;;;;;5030143;28;20047;-80
2021/12/21 11:13:10;;;;;;;13.30;7.78;;;0.40;97.60;;;;;;5037718;28;20052;-79
2021/12/21 11:15:39;;;;;;;20.58;9.55;;;0.40;97.90;;;;;;5042858;28;20058;-80
2021/12/21 11:18:13;;;;;;;17.05;9.98;;;0.40;98.00;;;;;;5062684;28;20458;-81
2021/12/21 11:20:42;;;;;;;15.15;9.20;;;0.40;98.30;;;;;;5061931;28;20047;-80
2021/12/21 11:23:10;;;;;;;19.27;9.10;;;0.50;98.20;;;;;;5044654;28;20056;-81
2021/12/21 11:25:36;;;;;;;14.98;8.82;;;0.50;97.70;;;;;;5050891;28;20036;-81
2021/12/21 11:28:04;;;;;;;17.25;8.48;;;0.50;98.30;;;;;;5061243;28;20021;-81
2021/12/21 11:30:32;;;;;;;15.73;8.95;;;0.60;97.40;;;;;;5043475;28;20082;-81
2021/12/21 11:33:02;;;;;;;17.20;9.48;;;0.60;98.00;;;;;;5063107;28;20100;-81
2021/12/21 11:38:04;;;;;;;13.65;8.40;;;0.70;97.60;;;;;;5054357;28;20050;-81
2021/12/21 11:40:34;;;;;;;19.33;8.48;;;0.60;97.90;;;;;;5022728;28;20084;-79
2021/12/21 11:43:23;;;;;;;12.65;7.80;;;0.50;97.40;;;;;;5040809;28;20097;-79
2021/12/21 11:45:50;;;;;;;14.32;7.82;;;0.50;97.50;;;;;;5025447;28;20108;-77
2021/12/21 11:48:39;;;;;;;16.02;8.18;;;0.40;97.40;;;;;;5052338;28;20021;-78
2021/12/21 11:51:10;;;;;;;16.20;7.90;;;0.30;98.30;;;;;;5029694;28;20048;-78
2021/12/21 11:53:37;;;;;;;15.02;8.55;;;0.40;98.80;;;;;;5042592;28;20029;-78
2021/12/21 11:56:04;;;;;;;15.73;7.35;;;0.40;98.80;;;;;;5074791;28;20024;-79
2021/12/21 11:58:35;;;;;;;18.52;9.18;;;0.40;98.90;;;;;;5046790;28;20021;-79
2021/12/21 12:01:14;;;;;;;16.63;9.20;;;0.40;98.80;;;;;;5043705;28;20021;-79
2021/12/21 12:03:46;;;;;;;12.15;7.47;;;0.30;98.50;;;;;;5049159;28;20059;-81
2021/12/21 12:06:14;;;;;;;16.05;8.73;;;0.30;98.90;;;;;;5049214;28;20024;-81
2021/12/21 12:08:50;;;;;;;14.85;8.77;;;0.30;99.40;;;;;;5059297;28;20040;-81
2021/12/21 12:11:35;;;;;;;18.05;9.70;;;0.30;99.50;;;;;;5026999;28;20029;-80
2021/12/21 12:14:22;;;;;;;16.60;8.50;;;0.30;99.50;;;;;;5043691;28;20021;-80
2021/12/21 12:16:54;;;;;;;14.95;9.18;;;0.40;99.60;;;;;;5030812;28;20029;-80
2021/12/21 12:19:32;;;;;;;18.73;9.68;;;0.40;98.80;;;;;;5065506;28;20052;-80
2021/12/21 12:22:01;;;;;;;13.27;8.35;;;0.40;99.10;;;;;;5046705;28;20079;-82
2021/12/21 12:24:34;;;;;;;15.23;8.15;;;0.30;99.90;;;;;;5069468;28;20025;-79
2021/12/21 12:27:17;;;;;;;14.75;9.18;;;0.30;99.60;;;;;;5070230;28;20033;-81
2021/12/21 12:29:52;;;;;;;17.98;9.45;;;0.40;99.90;;;;;;5068079;28;20040;-81
2021/12/21 12:32:30;;;;;;;12.15;7.45;;;0.60;99.20;;;;;;5048314;28;20119;-81
2021/12/21 12:35:06;;;;;;;16.70;8.32;;;0.70;98.90;;;;;;5066820;28;20372;-81
2021/12/21 12:37:32;;;;;;;15.60;7.88;;;0.70;97.70;;;;;;5064385;28;20096;-81
2021/12/21 12:40:10;;;;;;;19.33;8.73;;;0.80;97.00;;;;;;5050399;28;20052;-81
2021/12/21 12:42:36;;;;;;;14.75;7.45;;;0.80;97.10;;;;;;5043823;28;20040;-80
2021/12/21 12:45:16;;;;;;;11.13;6.97;;;0.70;97.00;;;;;;5045344;28;20429;-81
2021/12/21 12:47:46;;;;;;;15.85;8.23;;;0.80;97.50;;;;;;5044741;28;21599;-80
2021/12/21 12:50:39;;;;;;;14.30;7.88;;;0.80;97.50;;;;;;5065700;28;20017;-80
2021/12/21 12:53:07;;;;;;;12.77;7.65;;;0.70;97.50;;;;;;5060756;28;20059;-80
2021/12/21 12:55:46;;;;;;;12.32;6.65;;;0.60;97.70;;;;;;5045749;28;20039;-80
2021/12/21 12:58:23;;;;;;;11.40;7.40;;;0.50;97.80;;;;;;5065399;28;20067;-80
2021/12/21 13:01:04;;;;;;;14.43;7.85;;;0.30;97.60;;;;;;5053074;28;20025;-81
2021/12/21 13:03:40;;;;;;;14.50;7.20;;;0.20;98.00;;;;;;5049739;28;20025;-81
2021/12/21 13:06:10;;;;;;;13.93;8.30;;;0.10;98.30;;;;;;5041615;28;20335;-80
2021/12/21 13:08:36;;;;;;;18.83;9.10;;;0.20;98.40;;;;;;5046341;28;20539;-79
2021/12/21 13:11:02;;;;;;;14.70;8.23;;;0.20;98.50;;;;;;5045194;28;20045;-80
2021/12/21 13:13:38;;;;;;;11.45;6.47;;;0.30;98.50;;;;;;5041402;28;20153;-83
2021/12/21 13:16:11;;;;;;;13.15;7.32;;;0.20;98.40;;;;;;5051659;28;20089;-78
2021/12/21 13:18:45;;;;;;;13.95;7.85;;;0.30;98.70;;;;;;5030802;28;20085;-80
2021/12/21 13:21:22;;;;;;;17.95;8.80;;;0.40;98.70;;;;;;5026862;28;20055;-79
2021/12/21 13:23:51;;;;;;;17.63;8.68;;;0.50;98.30;;;;;;5048979;28;20005;-78
2021/12/21 13:26:18;;;;;;;18.92;9.50;;;0.50;97.60;;;;;;5044228;28;20013;-78
2021/12/21 13:28:52;;;;;;;17.42;8.85;;;0.50;97.60;;;;;;5054416;28;20021;-78
2021/12/21 13:31:21;;;;;;;15.23;8.10;;;0.40;97.50;;;;;;5067623;28;20489;-80
2021/12/21 13:33:53;;;;;;;21.20;9.98;;;0.40;97.70;;;;;;5044425;28;20093;-81
2021/12/21 13:36:29;;;;;;;;;;;0.30;97.80;;;;;;5046227;28;20021;-80
2021/12/21 13:38:56;;;;;;;13.82;8.13;;;0.30;97.70;;;;;;5057784;28;19999;-81
2021/12/21 13:41:22;;;;;;;17.00;8.90;;;0.20;97.90;;;;;;5048871;28;20066;-79
2021/12/21 13:43:57;;;;;;;18.65;9.13;;;0.20;98.40;;;;;;5059174;28;20040;-79
2021/12/21 13:46:23;;;;;;;19.30;9.23;;;0.10;98.60;;;;;;5045612;28;20109;-81
2021/12/21 13:48:56;;;;;;;25.13;10.43;;;0.00;98.80;;;;;;5042797;28;20037;-79
2021/12/21 13:51:24;;;;;;;19.23;9.32;;;0.10;99.20;;;;;;5025799;28;20122;-78
2021/12/21 13:53:54;;;;;;;21.35;9.82;;;0.20;99.40;;;;;;5044058;28;20078;-81
2021/12/21 13:56:25;;;;;;;22.83;10.25;;;0.40;99.50;;;;;;5061916;28;20028;-80
2021/12/21 13:58:56;;;;;;;15.32;8.90;;;0.60;98.90;;;;;;5058229;28;20071;-80
2021/12/21 14:01:26;;;;;;;16.23;8.93;;;0.80;98.60;;;;;;5053370;28;20021;-80
2021/12/21 14:03:56;;;;;;;18.23;10.45;;;0.90;98.20;;;;;;5041343;28;20033;-80
2021/12/21 14:06:23;;;;;;;17.08;9.68;;;0.90;97.60;;;;;;5043288;28;20041;-80
2021/12/21 14:08:58;;;;;;;18.42;9.70;;;1.00;97.70;;;;;;5054657;28;20147;-81
2021/12/21 14:11:32;;;;;;;18.73;9.98;;;1.00;97.20;;;;;;5061235;28;20021;-81